• Join FlightAware (Why Join?)
  • Login
  • US Flag 
05:13AM EDT


 

Airport Tracker/Info


-or-


 

Live Flight TrackerFlight Track Log ✈ LYC487 ✈ 16-Jan-2010 ✈ MDPP / POP - KMIA

Flight Track Log - Related Links

Times and Time Zones

All times are in EST time to prevent confusion due to time zone crossing. See the LYC487 flight status page for this flight to view local times or setup timezone preferences in your user account.

Time Position Orientation Groundspeed Altitude Reporting Facility
EST Latitude Longitude Course Direction KTS MPH feet Rate Location/Type
03:20AM 19.8936 -70.6803 321° Northwest 305 351 6,000  Level Miami Center
03:21AM 19.9603 -70.7369 321° Northwest 305 351 5,900  Descending Miami Center
03:22AM 20.0206 -70.7894 325° Northwest 293 337 6,100 1,080 Climbing Miami Center
03:23AM 20.0742 -70.8289 319° Northwest 263 303 8,100 1,800 Climbing Miami Center
03:24AM 20.1219 -70.8733 325° Northwest 244 281 9,800 1,380 Climbing Miami Center
03:25AM 20.1689 -70.9086 319° Northwest 222 255 11,000 1,200 Climbing Miami Center
03:26AM 20.2144 -70.9508 322° Northwest 212 244 12,200 1,080 Climbing Miami Center
03:27AM 20.2617 -70.9908 326° Northwest 212 244 13,200 1,020 Climbing Miami Center
03:28AM 20.3131 -71.0283 319° Northwest 212 244 14,200 960 Climbing Miami Center
03:29AM 20.3606 -71.0728 323° Northwest 217 250 15,200 900 Climbing Miami Center
03:30AM 20.4122 -71.1150 308° West 217 250 16,100 960 Climbing Miami Center
03:31AM 20.4517 -71.1686 301° West 223 257 17,200 960 Climbing Miami Center
03:32AM 20.4850 -71.2269 304° West 228 262 18,100 780 Climbing Miami Center
03:33AM 20.5206 -71.2831 304° West 228 262 18,800 720 Climbing Miami Center
03:34AM 20.5558 -71.3392 304° West 228 262 19,600 720 Climbing Miami Center
03:35AM 20.5933 -71.3994 303° West 234 269 20,300 660 Climbing Miami Center
03:36AM 20.6289 -71.4581 302° West 234 269 21,000 780 Climbing Miami Center
03:37AM 20.6622 -71.5142 304° West 234 269 21,900 480 Climbing Miami Center
03:38AM 20.6994 -71.5725 303° West 234 269 22,000  Climbing Miami Center
03:39AM 20.7372 -71.6353 304° West 240 276 22,000  Level Miami Center
03:40AM 20.7789 -71.7003 304° West 250 288 22,000  Level Miami Center
03:41AM 20.8208 -71.7675 304° West 261 300 22,000  Level Miami Center
03:42AM 20.8625 -71.8347 303° West 271 312 22,000  Level Miami Center
03:43AM 20.9067 -71.9064 303° West 271 312 22,000  Level Miami Center
03:44AM 20.9439 -71.9672 303° West 276 318 22,000  Level Miami Center
03:45AM 20.9881 -72.0389 303° West 276 318 22,000  Level Miami Center
03:46AM 21.0297 -72.1083 304° West 276 318 22,000  Level Miami Center
03:47AM 21.0758 -72.1803 304° West 276 318 22,000  Level Miami Center
03:48AM 21.1175 -72.2478 303° West 276 318 22,000  Level Miami Center
03:49AM 21.1614 -72.3194 302° West 276 318 22,000  Level Miami Center
03:50AM 21.2031 -72.3917 305° West 276 318 22,000  Level Miami Center
03:51AM 21.2467 -72.4592 304° West 276 318 22,000  Level Miami Center
03:52AM 21.2928 -72.5333 301° West 281 323 22,000  Level Miami Center
03:53AM 21.3322 -72.6033 304° West 281 323 22,000  Level Miami Center
03:54AM 21.3781 -72.6753 302° West 286 329 22,000  Level Miami Center
03:55AM 21.4194 -72.7456 300° West 286 329 22,000  Level Miami Center
03:56AM 21.4592 -72.8200 306° West 286 329 22,000  Level Miami Center
03:57AM 21.5069 -72.8900 301° West 286 329 22,000  Level Miami Center
03:58AM 21.5461 -72.9600 304° West 286 329 22,000  Level Miami Center
03:59AM 21.5919 -73.0325 303° West 294 338 22,000  Level Miami Center
04:00AM 21.6353 -73.1050 304° West 294 338 22,000  Level Miami Center
04:01AM 21.6789 -73.1753 304° West 289 333 22,000  Level Miami Center
04:02AM 21.7222 -73.2456 302° West 289 333 22,000  Level Miami Center
04:03AM 21.7636 -73.3158 303° West 289 333 22,000  Level Miami Center
04:04AM 21.8069 -73.3883 303° West 289 333 22,000  Level Miami Center
04:05AM 21.8483 -73.4567 303° West 289 333 22,000  Level Miami Center
04:06AM 21.8914 -73.5272 303° West 289 333 22,000  Level Miami Center
04:07AM 21.9328 -73.5956 302° West 280 322 22,000  Level Miami Center
04:08AM 21.9739 -73.6661 303° West 280 322 22,000  Level Miami Center
04:09AM 22.0214 -73.7456 301° West 285 328 22,000  Level Miami Center
04:10AM 22.0625 -73.8208 306° West 285 328 22,000  Level Miami Center
04:11AM 22.1078 -73.8892 299° West 290 334 22,000  Level Miami Center
04:12AM 22.1469 -73.9644 304° West 290 334 22,000  Level Miami Center
04:13AM 22.1922 -74.0375 303° West 290 334 22,000  Level Miami Center
04:14AM 22.2353 -74.1083 302° West 290 334 22,000  Level Miami Center
04:15AM 22.2783 -74.1817 301° West 290 334 22,000  Level Miami Center
04:16AM 22.3192 -74.2547 304° West 290 334 22,000  Level Miami Center
04:17AM 22.3622 -74.3236 304° West 290 334 22,000  Level Miami Center
04:18AM 22.4072 -74.3967 302° West 290 334 22,000  Level Miami Center
04:19AM 22.4481 -74.4678 302° West 290 334 22,000  Level Miami Center
04:20AM 22.4889 -74.5392 304° West 285 328 22,000  Level Miami Center
04:21AM 22.5317 -74.6081 301° West 285 328 22,000  Level Miami Center
04:22AM 22.5725 -74.6814 303° West 285 328 22,000  Level Miami Center
04:23AM 22.6153 -74.7528 303° West 285 328 22,000  Level Miami Center
04:24AM 22.6600 -74.8264 302° West 285 328 22,000  Level Miami Center
04:25AM 22.7008 -74.8978 301° West 285 328 22,000  Level Miami Center
04:26AM 22.7433 -74.9736 303° West 285 328 22,000  Level Miami Center
04:27AM 22.7861 -75.0453 303° West 285 328 22,000  Level Miami Center
04:28AM 22.8308 -75.1189 301° West 290 334 22,000  Level Miami Center
04:29AM 22.8714 -75.1928 303° West 290 334 22,000  Level Miami Center
04:30AM 22.9161 -75.2667 301° West 290 334 22,000  Level Miami Center
04:31AM 22.9567 -75.3406 302° West 290 334 22,000  Level Miami Center
04:32AM 22.9992 -75.4144 303° West 290 334 22,000  Level Miami Center
04:33AM 23.0436 -75.4886 302° West 290 334 22,000  Level Miami Center
04:34AM 23.0861 -75.5625 301° West 290 334 22,000  Level Miami Center
04:35AM 23.1264 -75.6344 303° West 290 334 22,000  Level Miami Center
04:36AM 23.1689 -75.7064 301° West 290 334 22,000  Level Miami Center
04:37AM 23.2089 -75.7783 303° West 290 334 22,000  Level Miami Center
04:38AM 23.2514 -75.8503 301° West 290 334 22,000  Level Miami Center
04:39AM 23.2872 -75.9158 302° West 290 334 22,000  Level Miami Center
04:40AM 23.3294 -75.9900 303° West 290 334 22,000  Level Miami Center
04:41AM 23.3717 -76.0622 303° West 285 328 22,000  Level Miami Center
04:42AM 23.4139 -76.1344 301° West 285 328 22,000  Level Miami Center
04:43AM 23.4539 -76.2067 303° West 285 328 22,000  Level Miami Center
04:44AM 23.4961 -76.2789 302° West 285 328 22,000  Level Miami Center
04:45AM 23.5381 -76.3511 301° West 285 328 22,000  Level Miami Center
04:46AM 23.5800 -76.4258 302° West 285 328 22,000  Level Miami Center
04:47AM 23.6219 -76.4983 303° West 290 334 22,000  Level Miami Center
04:48AM 23.6642 -76.5708 300° West 290 334 22,000  Level Miami Center
04:49AM 23.7039 -76.6456 302° West 290 334 22,000  Level Miami Center
04:50AM 23.7458 -76.7181 302° West 290 334 22,000  Level Miami Center
04:51AM 23.7856 -76.7886 302° West 285 328 22,000  Level Miami Center
04:52AM 23.8272 -76.8611 302° West 285 328 22,000  Level Miami Center
04:53AM 23.8669 -76.9317 301° West 285 328 22,000  Level Miami Center
04:54AM 23.9047 -77.0019 300° West 274 315 22,000  Level Miami Center
04:55AM 23.9442 -77.0772 303° West 273 314 22,000  Level Miami Center
04:56AM 23.9858 -77.1478 302° West 278 320 22,000  Level Miami Center
04:57AM 24.0275 -77.2206 302° West 278 320 22,000  Level Miami Center
04:58AM 24.0692 -77.2936 300° West 278 320 22,000  Level Miami Center
04:59AM 24.1086 -77.3689 303° West 278 320 22,000  Level Miami Center
05:00AM 24.1503 -77.4397 299° West 278 320 22,000  Level Miami Center
05:01AM 24.1894 -77.5172 302° West 278 320 22,000  Level Miami Center
05:02AM 24.2311 -77.5903 301° West 278 320 22,000  Level Miami Center
05:03AM 24.2619 -77.6475 302° West 278 320 22,000  Level Miami Center
05:04AM 24.3158 -77.7436 300° West 283 326 22,000  Level Miami Center
05:05AM 24.3550 -77.8169 302° West 283 326 22,000  Level Miami Center
05:06AM 24.3964 -77.8903 302° West 283 326 22,000  Level Miami Center
05:07AM 24.4378 -77.9636 300° West 283 326 22,000  Level Miami Center
05:08AM 24.4769 -78.0369 299° West 283 326 22,000  Level Miami Center
05:09AM 24.5158 -78.1128 302° West 283 326 22,000  Level Miami Center
05:10AM 24.5572 -78.1864 302° West 283 326 22,000  Level Miami Center
05:11AM 24.6003 -78.2622 301° West 289 333 22,000  Level Miami Center
05:12AM 24.6394 -78.3336 301° West 289 333 22,000  Level Miami Center
05:13AM 24.6803 -78.4094 302° West 289 333 22,000  Level Miami Center
05:14AM 24.7131 -78.4669 301° West 289 333 22,000  Level Miami Center
05:15AM 24.7603 -78.5547 300° West 284 327 22,000  Level Miami Center
05:16AM 24.7908 -78.6122 304° West 279 321 22,000  Level Miami Center
05:17AM 24.8442 -78.7000 297° West 279 321 22,000  Level Miami Center
05:18AM 24.8767 -78.7717 301° West 273 314 22,000  Level Miami Center
05:19AM 24.9175 -78.8456 304° West 273 314 22,000  Level Miami Center
05:20AM 24.9564 -78.9103 299° West 273 314 22,000 -60 Level Miami Center
05:21AM 24.9908 -78.9775 298° West 268 308 21,900 -720 Descending Miami Center
05:22AM 25.0294 -79.0561 302° West 275 316 20,600 -1,440 Descending Miami Center
05:23AM 25.0742 -79.1347 300° West 292 336 19,000 -1,500 Descending Miami Center
05:24AM 25.1169 -79.2158 301° West 299 344 17,600 -1,740 Descending Miami Center
05:25AM 25.1594 -79.2947 300° West 299 344 15,500 -2,040 Descending Miami Center
05:26AM 25.2000 -79.3714 300° West 299 344 13,600 -1,980 Descending Miami Center
05:27AM 25.2406 -79.4481 300° West 299 344 11,700 -1,980 Descending Miami Center
05:28AM 25.2789 -79.5222 302° West 284 327 9,900 -1,380 Descending Miami Center
05:29AM 25.3214 -79.5967 294° West 294 338 9,000 -600 Descending Miami Center
05:30AM 25.3372 -79.6361 307° West 279 321 9,000  Level Miami Center
05:30AM 25.3597 -79.6689 294° West 288 331 9,000  Level Miami Center
05:30AM 25.3736 -79.7039 306° West 274 315 9,000  Level Miami Center
05:31AM 25.3981 -79.7411 303° West 283 326 9,000  Level Miami Center
05:31AM 25.4161 -79.7714 310° West 274 315 9,000  Level Miami Center
05:32AM 25.4447 -79.8089 299° West 278 320 9,000  Level Miami Center
05:32AM 25.4608 -79.8417 310° West 272 313 9,000  Level Miami Center
05:33AM 25.4872 -79.8767 303° West 273 314 9,000  Level Miami Center
05:33AM 25.5053 -79.9072 308° West 272 313 9,000  Level Miami Center
05:34AM 25.5378 -79.9539 300° West 278 320 9,000  Level Miami Center
05:34AM 25.5500 -79.9772 310° West 272 313 9,000  Level Miami Center
05:35AM 25.5825 -80.0197 301° West 273 314 9,000  Level Miami Center
05:35AM 25.5964 -80.0453 309° West 273 314 9,000  Level Miami Center
05:36AM 25.6269 -80.0875 301° West 268 308 9,000  Level Miami Center
05:36AM 25.6408 -80.1133 319° Northwest 274 315 9,000  Level Miami Center
05:37AM 25.6778 -80.1489 312° West 268 308 9,000 -180 Level Miami Center
05:38AM 25.7042 -80.1819 316° Northwest 277 319 8,800 -660 Descending Miami Center
05:39AM 25.7653 -80.2481 315° West 285 328 8,000 -780 Descending Miami Center
05:40AM 25.8222 -80.3122 316° Northwest 291 335 7,200 -1,260 Descending Miami Center
05:41AM 25.8711 -80.3642 302° West 279 321 5,700 -1,860 Descending Miami Center
05:42AM 25.9114 -80.4347 261° West 285 328 3,900 -1,020 Descending Miami Center
05:43AM 25.9014 -80.5014 186° South 216 249 3,700 -360 Descending Miami Center
05:43AM 25.8572 -80.5069 169° South 177 204 3,200 -420 Descending Miami Center
05:44AM 25.8094 -80.4964 109° East 164 189 3,000 -240 Descending Miami Center
05:46AM 25.7942 -80.4475 89° East 153 176 2,700 -480 Descending Miami Center
05:47AM 25.7947 -80.4150 92° East 142 163 2,000 -960 Descending Miami Center
05:48AM 25.7936 -80.3736 85° East 139 160 1,100 -780 Descending Miami Center
05:49AM 25.7967 -80.3367 85° East 105 121 500 -600 Descending Miami Center